Detalii statie UNIC PROD [00001D09]

Toti senzorii

Date Temperatura solului [C]Precipitatii [mm]Voltaj baterie [mV]Leaf Wetness [Min]HC Air temperature [C]HC Relative humidity [%]Punctul de roua [C]
medieminmaxsumaultimatimpmedieminmaxmediemediemin
2017-10-20 09:00:00 12.8 12.7 13 0 7236 11.66 10.34 13.05 100 11.6 10.3
2017-10-20 10:00:00 12.7 12.7 12.9 0 7236 15.94 13.34 17.8 87.55 13.6 12.6
2017-10-20 11:00:00 12.7 12.7 12.8 0 7236 19.63 18.07 21.56 66.87 13.1 12.7
2017-10-20 12:00:00 12.7 12.6 12.8 0 7226 22.74 21.62 24.16 53.07 12.4 11.4
2017-10-20 13:00:00 12.8 12.6 12.9 0 7226 24.9 24.09 25.55 43.82 11.5 10.8
2017-10-20 14:00:00 12.9 12.8 13.2 0 7236 25.83 25.12 26.32 41.5 11.5 11.3
2017-10-20 15:00:00 13.1 13.1 13.3 0 7236 25.76 24.99 26.23 42.84 11.8 11.6
2017-10-20 16:00:00 13.4 13.2 13.6 0 7216 24.19 23.75 24.84 48.47 12.4 12.1
2017-10-20 17:00:00 13.6 13.4 13.7 0 6962 21.63 19.09 23.47 61.45 13.6 12.4
2017-10-20 18:00:00 13.7 13.7 13.9 0 6884 16.83 15.46 18.59 90.6 15.1 14.2
2017-10-20 19:00:00 13.9 13.9 14.1 0 6874 13.88 12.81 15.12 100 13.8 12.8
2017-10-20 20:00:00 13.9 13.8 14.1 0.8 6874 11.79 10.79 12.22 100 11.7 10.7
2017-10-20 21:00:00 13.9 13.8 14.2 0 6854 10.26 9.38 10.97 100 10.2 9.3
2017-10-20 22:00:00 13.9 13.9 14.1 0 6854 9.57 8.02 10.79 100 9.5 8
2017-10-20 23:00:00 13.9 13.9 14 0 6844 8.16 7.58 8.62 100 8.1 7.5
2017-10-21 00:00:00 13.9 13.8 14 0 6834 8.13 7.62 9.04 100 8 7.6
2017-10-21 01:00:00 13.8 13.7 13.9 0 6826 7.54 6.59 8.94 100 7.4 6.5
2017-10-21 02:00:00 13.7 13.7 13.8 0 6816 6.68 6.08 7.02 100 6.6 6
2017-10-21 03:00:00 13.6 13.6 13.7 0 6816 6.65 6.26 7.16 100 6.6 6.2
2017-10-21 04:00:00 13.4 13.3 13.5 0 6816 6.25 5.75 6.83 100 6.2 5.7
2017-10-21 05:00:00 13.3 13.2 13.5 0 6806 6.41 5.33 7.71 100 6.3 5.3
2017-10-21 06:00:00 13.2 13.2 13.4 0 6796 5.06 4.77 5.3 100 5 4.7
2017-10-21 07:00:00 13.1 13.1 13.3 0 6806 5.26 5 5.58 100 5.2 5
2017-10-21 08:00:00 13 12.9 13.2 0 7070 6.54 5.26 7.57 100 6.4 5.2
2017-10-21 09:00:00 12.9 12.8 13 0 7236 9.51 7.87 10.94 100 9.4 7.8
2017-10-21 10:00:00 12.8 12.7 13 0.2 7254 12.35 11.35 13.61 100 12.3 11.3
2017-10-21 11:00:00 12.7 12.7 12.9 0 7236 16.4 13.79 18.33 80.34 12.7 11.5
2017-10-21 12:00:00 12.7 12.7 12.8 0 7236 19.86 18.66 21.19 58.14 11.2 10.9
2017-10-21 13:00:00 12.8 12.7 12.9 0 7236 22.25 21.45 22.86 47.5 10.3 9.6
2017-10-21 14:00:00 12.8 12.8 13 0 7226 23.48 22.65 24.09 39.08 8.5 7.7
2017-10-21 15:00:00 13 12.9 13.2 0 7226 23.56 23.18 24.02 37.39 7.9 7.5
2017-10-21 16:00:00 13.2 13.1 13.4 0 7226 22.33 21.54 23.48 41.45 8.3 7.9
2017-10-21 17:00:00 13.4 13.3 13.5 0 6914 19.71 16.57 21.29 56.49 10.4 8.8
2017-10-21 18:00:00 13.5 13.4 13.7 0 6894 14.01 12.59 15.9 89.56 12.1 11.7
2017-10-21 19:00:00 13.6 13.5 13.7 0 6884 11.78 11.43 12.22 100 11.7 11.4
2017-10-21 20:00:00 13.6 13.5 13.8 0.6 6874 11.83 10.94 12.4 98.7 11.5 10.9
2017-10-21 21:00:00 13.6 13.6 13.8 0 6874 11.99 11.54 12.47 94 10.9 10.5
2017-10-21 22:00:00 13.6 13.6 13.7 0 6864 12.28 11.79 12.86 93.95 11.2 10.9
2017-10-21 23:00:00 13.6 13.5 13.7 0.2 6854 12.65 11.86 13.05 88.08 10.5 9.7
2017-10-22 00:00:00 13.5 13.3 13.7 0 6854 10.75 10.04 11.83 96.36 10 9.8
2017-10-22 01:00:00 13.4 13.3 13.5 0 6834 12.72 10.87 14.31 83.77 9.8 9.2
2017-10-22 02:00:00 13.3 13.2 13.6 0 6834 12.19 11.29 12.77 87.78 10 9.8
2017-10-22 03:00:00 13.3 13.2 13.4 0 6826 9.66 8.77 11.48 96.63 9 8.6
2017-10-22 04:00:00 13.2 13.1 13.4 0 6826 9.89 9.06 10.91 100 9.8 9
2017-10-22 05:00:00 13.2 13.2 13.3 0.2 6806 9.47 8.4 10.99 98.71 9.1 8.4
2017-10-22 06:00:00 13.1 13.1 13.2 0.2 6806 8.21 7.51 9.15 100 8.1 7.5
2017-10-22 07:00:00 13 12.9 13.2 0 6806 6.95 6.39 7.72 100 6.9 6.3
2017-10-22 08:00:00 13 13 13 0 7010 8.35 7.1 10.1 100 8.3 7.1